createdAt,value
2022-12-05T00:02:14.627Z,2.84
2022-12-05T00:04:44.338Z,2.90
2022-12-05T00:07:14.209Z,2.78
2022-12-05T00:09:42.247Z,2.79
2022-12-05T00:12:12.271Z,2.85
2022-12-05T00:14:40.797Z,2.78
2022-12-05T00:17:09.453Z,2.85
2022-12-05T00:19:38.035Z,2.83
2022-12-05T00:22:06.536Z,2.80
2022-12-05T00:24:36.518Z,2.76
2022-12-05T00:27:06.766Z,2.77
2022-12-05T00:29:34.995Z,2.84
2022-12-05T00:32:03.290Z,2.79
2022-12-05T00:34:31.734Z,2.88
2022-12-05T00:37:00.934Z,2.84
2022-12-05T00:39:29.270Z,2.88
2022-12-05T00:41:58.881Z,2.88
2022-12-05T00:44:27.192Z,2.88
2022-12-05T00:46:55.413Z,2.84
2022-12-05T00:49:26.110Z,2.88
2022-12-05T00:51:54.235Z,2.85
2022-12-05T00:54:22.698Z,2.91
2022-12-05T00:56:52.683Z,2.93
2022-12-05T00:59:22.702Z,2.93
2022-12-05T01:01:52.657Z,3.03
2022-12-05T01:04:24.649Z,3.05
2022-12-05T01:06:56.669Z,2.97
2022-12-05T01:09:26.694Z,2.86
2022-12-05T01:11:55.160Z,2.93
2022-12-05T01:14:26.931Z,2.95
2022-12-05T01:16:58.228Z,2.99
2022-12-05T01:19:32.778Z,2.94
2022-12-05T01:22:01.690Z,3.03
2022-12-05T01:24:30.979Z,3.05
2022-12-05T01:26:59.192Z,3.14
2022-12-05T01:29:29.700Z,3.03
2022-12-05T01:31:58.656Z,2.98
2022-12-05T01:34:27.303Z,2.93
2022-12-05T01:36:55.568Z,2.95
2022-12-05T01:39:24.929Z,2.99
2022-12-05T01:41:53.514Z,2.90
2022-12-05T01:44:58.896Z,2.93
2022-12-05T01:47:32.346Z,3.02
2022-12-05T01:50:01.518Z,2.93
2022-12-05T01:52:33.049Z,2.95
2022-12-05T01:55:07.470Z,2.97
2022-12-05T01:57:38.792Z,2.85
2022-12-05T02:00:11.683Z,2.82
2022-12-05T02:02:44.082Z,2.71
2022-12-05T02:05:18.785Z,2.66
2022-12-05T02:07:48.707Z,2.67
2022-12-05T02:10:17.823Z,2.63
2022-12-05T02:12:47.174Z,2.69
2022-12-05T02:15:38.358Z,2.63
2022-12-05T02:18:26.370Z,2.65
2022-12-05T02:21:11.346Z,2.57
2022-12-05T02:24:10.823Z,2.54
2022-12-05T02:26:54.392Z,2.58
2022-12-05T02:30:01.577Z,2.52
2022-12-05T02:32:52.416Z,2.56
2022-12-05T02:35:36.775Z,2.49
2022-12-05T02:38:19.740Z,2.47
2022-12-05T02:40:56.810Z,2.47
2022-12-05T02:43:31.946Z,2.42
2022-12-05T02:46:06.920Z,2.42
2022-12-05T02:48:36.462Z,2.33
2022-12-05T02:51:07.917Z,2.34
2022-12-05T02:53:42.030Z,2.38
2022-12-05T02:56:11.238Z,2.23
2022-12-05T02:58:45.971Z,2.32
2022-12-05T03:01:16.374Z,2.31
2022-12-05T03:03:45.254Z,2.26
2022-12-05T03:06:15.846Z,2.27
2022-12-05T03:08:49.075Z,2.40
2022-12-05T03:11:18.124Z,2.37
2022-12-05T03:13:50.674Z,2.30
2022-12-05T03:16:26.026Z,2.36
2022-12-05T03:18:58.758Z,2.32
2022-12-05T03:21:32.885Z,2.28
2022-12-05T03:24:06.748Z,2.26
2022-12-05T03:26:48.311Z,2.33
2022-12-05T03:29:28.325Z,2.31
2022-12-05T03:32:07.437Z,2.32
2022-12-05T03:34:53.108Z,2.28
2022-12-05T03:37:28.837Z,2.27
2022-12-05T03:40:11.121Z,2.34
2022-12-05T03:42:46.398Z,2.34
2022-12-05T03:45:22.058Z,2.32
2022-12-05T03:47:58.589Z,2.34
2022-12-05T03:50:29.412Z,2.35
2022-12-05T03:53:20.316Z,2.28
2022-12-05T03:55:57.321Z,2.36
2022-12-05T03:58:32.989Z,2.36
2022-12-05T04:01:03.297Z,2.39
2022-12-05T04:03:40.587Z,2.36
2022-12-05T04:06:15.569Z,2.35
2022-12-05T04:08:50.733Z,2.29
2022-12-05T04:11:24.438Z,2.35
2022-12-05T04:13:55.829Z,2.36
2022-12-05T04:16:44.778Z,2.32
2022-12-05T04:19:19.842Z,2.35
2022-12-05T04:21:50.800Z,2.35
2022-12-05T04:24:40.492Z,2.29
2022-12-05T04:27:22.600Z,2.35
2022-12-05T04:29:59.360Z,2.29
2022-12-05T04:32:34.447Z,2.27
2022-12-05T04:35:10.939Z,2.07
2022-12-05T04:37:44.415Z,2.18
2022-12-05T04:40:20.152Z,2.23
2022-12-05T04:42:51.250Z,2.06
2022-12-05T04:45:22.629Z,2.11
2022-12-05T04:47:55.207Z,2.15
2022-12-05T04:50:30.508Z,2.06
2022-12-05T04:53:01.857Z,2.07
2022-12-05T04:55:34.243Z,2.12
2022-12-05T04:58:09.198Z,2.17
2022-12-05T05:00:48.502Z,2.19
2022-12-05T05:03:27.514Z,2.12
2022-12-05T05:05:59.438Z,2.19
2022-12-05T05:08:29.836Z,2.26
2022-12-05T05:11:10.995Z,2.36
2022-12-05T05:13:39.304Z,2.39
2022-12-05T05:16:09.052Z,2.38
2022-12-05T05:18:38.495Z,2.41
2022-12-05T05:21:17.006Z,2.43
2022-12-05T05:23:45.110Z,2.41
2022-12-05T05:26:15.517Z,2.45
2022-12-05T05:28:44.239Z,2.38
2022-12-05T05:31:13.075Z,2.20
2022-12-05T05:33:41.627Z,2.04
2022-12-05T05:36:14.758Z,2.22
2022-12-05T05:38:46.182Z,2.20
2022-12-05T05:41:15.685Z,2.31
2022-12-05T05:43:44.188Z,2.33
2022-12-05T05:46:14.193Z,2.21
2022-12-05T05:48:42.918Z,1.95
2022-12-05T05:51:14.527Z,1.92
2022-12-05T05:53:43.555Z,1.91
2022-12-05T05:56:18.653Z,2.10
2022-12-05T05:58:50.288Z,2.08
2022-12-05T06:01:21.735Z,2.45
2022-12-05T06:03:51.394Z,2.39
2022-12-05T06:06:22.570Z,2.35
2022-12-05T06:08:51.994Z,2.47
2022-12-05T06:11:26.204Z,2.47
2022-12-05T06:13:56.706Z,2.41
2022-12-05T06:16:25.327Z,2.29
2022-12-05T06:18:54.096Z,2.13
2022-12-05T06:21:24.729Z,2.07
2022-12-05T06:23:54.371Z,1.88
2022-12-05T06:26:24.142Z,1.95
2022-12-05T06:28:53.086Z,2.12
2022-12-05T06:31:24.179Z,2.09
2022-12-05T06:33:52.325Z,2.08
2022-12-05T06:36:22.850Z,2.17
2022-12-05T06:38:53.388Z,2.00
2022-12-05T06:41:24.566Z,2.12
2022-12-05T06:44:01.915Z,2.19
2022-12-05T06:46:30.724Z,2.23
2022-12-05T06:49:01.342Z,2.34
2022-12-05T06:51:31.203Z,2.31
2022-12-05T06:54:00.707Z,2.22
2022-12-05T06:56:29.425Z,1.98
2022-12-05T06:58:57.573Z,1.98
2022-12-05T07:01:42.707Z,2.16
2022-12-05T07:04:16.168Z,2.27
2022-12-05T07:06:50.144Z,2.34
2022-12-05T07:09:22.238Z,2.42
2022-12-05T07:11:52.542Z,2.40
2022-12-05T07:17:09.052Z,2.38
2022-12-05T07:19:37.809Z,2.39
2022-12-05T07:22:09.466Z,2.39
2022-12-05T07:24:43.443Z,2.49
2022-12-05T07:27:11.619Z,2.45
2022-12-05T07:29:43.011Z,2.47
2022-12-05T07:32:11.269Z,2.53
2022-12-05T07:34:40.666Z,2.47
2022-12-05T07:37:09.147Z,2.42
2022-12-05T07:39:37.493Z,2.52
2022-12-05T07:42:07.887Z,2.13
2022-12-05T07:44:36.464Z,2.23
2022-12-05T07:47:05.233Z,2.38
2022-12-05T07:49:34.316Z,2.45
2022-12-05T07:52:03.710Z,2.48
2022-12-05T07:54:32.432Z,2.55
2022-12-05T07:57:00.808Z,2.57
2022-12-05T07:59:30.847Z,2.57
2022-12-05T08:01:59.245Z,2.67
2022-12-05T08:04:28.274Z,2.69
2022-12-05T08:06:56.673Z,2.66
2022-12-05T08:09:24.914Z,2.67
2022-12-05T08:11:53.114Z,2.54
2022-12-05T08:14:21.848Z,2.61
2022-12-05T08:16:52.138Z,2.39
2022-12-05T08:19:20.382Z,2.57
2022-12-05T08:21:52.548Z,2.50
2022-12-05T08:24:20.814Z,2.31
2022-12-05T08:26:49.136Z,2.35
2022-12-05T08:29:21.523Z,2.40
2022-12-05T08:31:52.990Z,2.57
2022-12-05T08:34:22.501Z,2.78
2022-12-05T08:36:53.640Z,2.83
2022-12-05T08:39:22.192Z,2.85
2022-12-05T08:41:51.087Z,2.89
2022-12-05T08:44:19.886Z,2.95
2022-12-05T08:46:51.610Z,2.88
2022-12-05T08:49:20.169Z,2.81
2022-12-05T08:51:48.551Z,2.89
2022-12-05T08:54:17.555Z,2.88
2022-12-05T08:56:45.812Z,2.93
2022-12-05T08:59:15.705Z,2.90
2022-12-05T09:01:44.285Z,3.00
2022-12-05T09:04:14.066Z,2.87
2022-12-05T09:06:42.925Z,3.06
2022-12-05T09:09:15.676Z,2.89
2022-12-05T09:11:49.011Z,3.00
2022-12-05T09:14:17.297Z,3.05
2022-12-05T09:16:48.134Z,3.01
2022-12-05T09:19:21.086Z,2.94
2022-12-05T09:21:49.299Z,2.90
2022-12-05T09:24:17.894Z,2.95
2022-12-05T09:26:48.246Z,3.11
2022-12-05T09:29:17.781Z,3.06
2022-12-05T09:31:48.654Z,3.15
2022-12-05T09:34:20.279Z,2.90
2022-12-05T09:37:01.363Z,2.82
2022-12-05T09:39:38.935Z,2.90
2022-12-05T09:42:25.888Z,3.05
2022-12-05T09:45:06.015Z,3.03
2022-12-05T09:47:42.976Z,3.10
2022-12-05T09:50:21.622Z,3.17
2022-12-05T09:53:06.576Z,3.01
2022-12-05T09:55:45.332Z,3.11
2022-12-05T09:58:22.983Z,3.14
2022-12-05T10:00:54.913Z,3.21
2022-12-05T10:03:30.966Z,3.32
2022-12-05T10:06:14.238Z,3.12
2022-12-05T10:09:07.179Z,2.87
2022-12-05T10:11:43.120Z,2.88
2022-12-05T10:14:22.601Z,2.97
2022-12-05T10:16:56.487Z,2.90
2022-12-05T10:19:30.356Z,3.14
2022-12-05T10:22:07.196Z,3.29
2022-12-05T10:24:40.151Z,3.19
2022-12-05T10:27:17.266Z,3.22
2022-12-05T10:29:50.716Z,3.35
2022-12-05T10:32:24.523Z,3.27
2022-12-05T10:34:56.820Z,3.21
2022-12-05T10:37:30.924Z,3.37
2022-12-05T10:40:00.267Z,3.07
2022-12-05T10:42:33.432Z,3.22
2022-12-05T10:45:05.556Z,3.42
2022-12-05T10:47:35.040Z,3.12
2022-12-05T10:50:06.659Z,3.16
2022-12-05T10:52:37.525Z,3.39
2022-12-05T10:55:09.709Z,3.36
2022-12-05T10:57:38.014Z,3.23
2022-12-05T11:00:13.360Z,3.34
2022-12-05T11:02:49.361Z,3.48
2022-12-05T11:05:31.808Z,3.57
2022-12-05T11:08:01.848Z,3.38
2022-12-05T11:10:36.012Z,3.30
2022-12-05T11:13:16.538Z,3.56
2022-12-05T11:15:52.288Z,3.27
2022-12-05T11:18:30.186Z,3.37
2022-12-05T11:21:09.603Z,3.57
2022-12-05T11:23:39.765Z,3.69
2022-12-05T11:26:20.066Z,3.79
2022-12-05T11:28:50.688Z,3.74
2022-12-05T11:31:27.253Z,3.81
2022-12-05T11:34:16.731Z,3.99
2022-12-05T11:36:50.096Z,3.98
2022-12-05T11:39:19.941Z,3.93
2022-12-05T11:42:16.673Z,3.74
2022-12-05T11:45:18.987Z,3.87
2022-12-05T11:48:25.456Z,3.81
2022-12-05T11:51:11.639Z,3.69
2022-12-05T11:54:00.799Z,3.61
2022-12-05T11:56:38.622Z,3.54
2022-12-05T11:59:30.862Z,3.63
2022-12-05T12:02:10.456Z,3.72
2022-12-05T12:04:56.641Z,3.68
2022-12-05T12:07:46.319Z,3.77
2022-12-05T12:10:26.039Z,3.64
2022-12-05T12:13:10.302Z,3.70
2022-12-05T12:15:53.555Z,3.63
2022-12-05T12:18:41.137Z,3.71
2022-12-05T12:21:19.066Z,3.61
2022-12-05T12:24:01.804Z,3.59
2022-12-05T12:26:47.102Z,3.63
2022-12-05T12:29:32.324Z,3.81
2022-12-05T12:32:16.682Z,3.66
2022-12-05T12:35:01.349Z,3.72
2022-12-05T12:37:38.878Z,3.74
2022-12-05T12:40:15.785Z,3.79
2022-12-05T12:42:58.335Z,3.81
2022-12-05T12:45:53.238Z,3.82
2022-12-05T12:48:40.260Z,3.97
2022-12-05T12:51:15.376Z,3.85
2022-12-05T12:54:08.056Z,3.70
2022-12-05T12:56:48.449Z,3.88
2022-12-05T12:59:41.983Z,3.88
2022-12-05T13:02:20.852Z,3.95
2022-12-05T13:04:54.417Z,3.93
2022-12-05T13:07:28.308Z,3.81
2022-12-05T13:10:01.736Z,3.92
2022-12-05T13:12:35.480Z,3.84
2022-12-05T13:15:13.152Z,3.94
2022-12-05T13:17:46.973Z,3.78
2022-12-05T13:20:18.264Z,3.70
2022-12-05T13:22:47.519Z,3.62
2022-12-05T13:25:17.383Z,3.72
2022-12-05T13:27:57.281Z,3.75
2022-12-05T13:30:28.553Z,3.69
2022-12-05T13:33:13.341Z,3.83
2022-12-05T13:35:59.617Z,3.92
2022-12-05T13:38:48.381Z,3.77
2022-12-05T13:41:43.235Z,3.69
2022-12-05T13:44:15.474Z,3.81
2022-12-05T13:46:45.080Z,3.81
2022-12-05T13:49:34.461Z,3.71
2022-12-05T13:52:09.723Z,3.77
2022-12-05T13:54:45.931Z,3.73
2022-12-05T13:57:50.432Z,3.98
2022-12-05T14:00:28.112Z,3.88
2022-12-05T14:02:59.687Z,3.85
2022-12-05T14:05:45.338Z,3.84
2022-12-05T14:08:49.310Z,3.79
2022-12-05T14:11:18.608Z,3.66
2022-12-05T14:13:50.351Z,3.56
2022-12-05T14:17:01.601Z,3.62
2022-12-05T14:19:56.069Z,3.67
2022-12-05T14:22:56.938Z,3.68
2022-12-05T14:26:08.939Z,3.60
2022-12-05T14:28:58.260Z,3.71
2022-12-05T14:31:42.662Z,3.70
2022-12-05T14:34:26.162Z,3.60
2022-12-05T14:37:00.476Z,3.63
2022-12-05T14:39:39.735Z,3.59
2022-12-05T14:42:22.684Z,3.47
2022-12-05T14:44:58.052Z,3.48
2022-12-05T14:47:31.125Z,3.37
2022-12-05T14:50:04.648Z,3.44
2022-12-05T14:52:39.057Z,3.44
2022-12-05T14:55:14.411Z,3.42
2022-12-05T14:57:49.255Z,3.48
2022-12-05T15:00:26.307Z,3.59
2022-12-05T15:02:58.666Z,3.57
2022-12-05T15:05:29.192Z,3.43
2022-12-05T15:07:59.926Z,3.39
2022-12-05T15:10:36.387Z,3.35
2022-12-05T15:13:10.347Z,3.43
2022-12-05T15:15:45.581Z,3.33
2022-12-05T15:18:22.631Z,3.33
2022-12-05T15:20:58.593Z,3.25
2022-12-05T15:23:40.408Z,3.30
2022-12-05T15:26:45.550Z,3.28
2022-12-05T15:29:10.614Z,3.34
2022-12-05T15:31:47.282Z,3.39
2022-12-05T15:34:23.166Z,3.41
2022-12-05T15:36:57.057Z,3.21
2022-12-05T15:39:31.089Z,3.22
2022-12-05T15:42:02.863Z,3.21
2022-12-05T15:44:37.588Z,3.19
2022-12-05T15:47:22.454Z,3.31
2022-12-05T15:49:51.271Z,3.23
2022-12-05T15:52:32.059Z,3.25
2022-12-05T15:55:04.804Z,3.23
2022-12-05T15:57:39.307Z,3.22
2022-12-05T16:00:18.394Z,3.21
2022-12-05T16:02:54.420Z,3.18
2022-12-05T16:05:29.271Z,3.26
2022-12-05T16:07:57.675Z,3.23
2022-12-05T16:10:29.540Z,3.27
2022-12-05T16:13:04.303Z,3.25
2022-12-05T16:15:33.042Z,3.15
2022-12-05T16:18:06.231Z,3.19
2022-12-05T16:20:36.840Z,3.36
2022-12-05T16:23:08.643Z,3.26
2022-12-05T16:25:38.112Z,3.27
2022-12-05T16:28:18.246Z,3.31
2022-12-05T16:30:58.689Z,3.38
2022-12-05T16:33:31.349Z,3.37
2022-12-05T16:36:12.048Z,3.51
2022-12-05T16:38:43.430Z,3.62
2022-12-05T16:41:12.612Z,3.52
2022-12-05T16:43:46.876Z,3.59
2022-12-05T16:46:44.368Z,3.45
2022-12-05T16:49:21.094Z,3.61
2022-12-05T16:52:00.179Z,3.58
2022-12-05T16:54:28.274Z,3.64
2022-12-05T16:56:57.557Z,3.65
2022-12-05T16:59:32.218Z,3.44
2022-12-05T17:02:02.104Z,3.52
2022-12-05T17:04:32.436Z,3.63
2022-12-05T17:07:00.978Z,3.72
2022-12-05T17:09:29.125Z,3.50
2022-12-05T17:12:04.626Z,3.59
2022-12-05T17:14:34.123Z,3.49
2022-12-05T17:17:02.218Z,3.58
2022-12-05T17:19:33.352Z,3.66
2022-12-05T17:22:03.174Z,3.65
2022-12-05T17:24:32.934Z,3.59
2022-12-05T17:27:03.909Z,3.68
2022-12-05T17:29:35.864Z,3.56
2022-12-05T17:32:04.613Z,3.65
2022-12-05T17:34:34.674Z,3.49
2022-12-05T17:37:04.488Z,3.37
2022-12-05T17:39:33.737Z,3.34
2022-12-05T17:42:02.132Z,3.38
2022-12-05T17:44:30.686Z,3.43
2022-12-05T17:47:07.696Z,3.42
2022-12-05T17:49:40.615Z,3.50
2022-12-05T17:52:21.480Z,3.55
2022-12-05T17:54:54.793Z,3.80
2022-12-05T17:57:23.484Z,3.76
2022-12-05T17:59:51.982Z,3.79
2022-12-05T18:02:20.405Z,3.69
2022-12-05T18:04:49.995Z,3.78
2022-12-05T18:07:19.079Z,3.78
2022-12-05T18:09:47.426Z,3.62
2022-12-05T18:12:16.013Z,3.57
2022-12-05T18:14:44.415Z,3.77
2022-12-05T18:17:12.766Z,3.47
2022-12-05T18:19:41.295Z,3.48
2022-12-05T18:22:14.651Z,3.62
2022-12-05T18:24:45.871Z,3.45
2022-12-05T18:27:14.442Z,3.51
2022-12-05T18:29:43.026Z,3.46
2022-12-05T18:32:11.485Z,3.48
2022-12-05T18:34:40.388Z,3.54
2022-12-05T18:37:08.786Z,3.69
2022-12-05T18:39:39.203Z,3.92
2022-12-05T18:42:15.517Z,3.67
2022-12-05T18:44:44.635Z,3.80
2022-12-05T18:47:12.954Z,3.88
2022-12-05T18:49:41.458Z,3.93
2022-12-05T18:52:10.395Z,3.96
2022-12-05T18:54:40.674Z,3.92
2022-12-05T18:57:09.233Z,4.03
2022-12-05T18:59:38.916Z,3.94
2022-12-05T19:02:07.316Z,3.89
2022-12-05T19:04:36.149Z,3.94
2022-12-05T19:07:04.387Z,3.97
2022-12-05T19:09:33.778Z,3.95
2022-12-05T19:12:03.417Z,4.00
2022-12-05T19:14:35.526Z,4.10
2022-12-05T19:17:04.941Z,3.98
2022-12-05T19:19:33.745Z,3.92
2022-12-05T19:22:02.274Z,3.72
2022-12-05T19:24:31.274Z,3.72
2022-12-05T19:26:59.885Z,3.91
2022-12-05T19:29:29.993Z,3.94
2022-12-05T19:31:58.496Z,3.88
2022-12-05T19:34:26.852Z,3.96
2022-12-05T19:36:55.844Z,3.84
2022-12-05T19:39:27.064Z,3.94
2022-12-05T19:41:57.737Z,3.93
2022-12-05T19:44:26.792Z,3.70
2022-12-05T19:46:57.335Z,3.62
2022-12-05T19:49:26.352Z,3.75
2022-12-05T19:51:57.171Z,3.64
2022-12-05T19:54:27.881Z,3.58
2022-12-05T19:56:59.012Z,3.68
2022-12-05T19:59:29.135Z,3.81
2022-12-05T20:01:59.266Z,3.78
2022-12-05T20:04:27.840Z,3.88
2022-12-05T20:06:56.480Z,3.97
2022-12-05T20:09:25.875Z,3.98
2022-12-05T20:11:56.035Z,4.00
2022-12-05T20:14:25.734Z,4.01
2022-12-05T20:16:54.687Z,3.99
2022-12-05T20:19:25.216Z,4.06
2022-12-05T20:21:55.615Z,4.22
2022-12-05T20:24:23.846Z,4.15
2022-12-05T20:26:53.117Z,4.22
2022-12-05T20:29:21.318Z,4.13
2022-12-05T20:31:52.343Z,4.02
2022-12-05T20:34:20.898Z,4.07
2022-12-05T20:36:50.514Z,3.86
2022-12-05T20:39:19.399Z,3.95
2022-12-05T20:41:51.171Z,3.82
2022-12-05T20:44:22.507Z,3.88
2022-12-05T20:46:52.054Z,3.84
2022-12-05T20:49:21.064Z,3.70
2022-12-05T20:51:51.658Z,3.88
2022-12-05T20:54:20.053Z,3.90
2022-12-05T20:56:49.352Z,3.96
2022-12-05T20:59:18.101Z,3.87
2022-12-05T21:01:47.693Z,3.83
2022-12-05T21:04:16.259Z,3.86
2022-12-05T21:06:46.781Z,3.87
2022-12-05T21:09:26.432Z,3.76
2022-12-05T21:11:55.887Z,3.81
2022-12-05T21:14:25.885Z,3.68
2022-12-05T21:16:56.580Z,3.74
2022-12-05T21:19:25.789Z,3.73
2022-12-05T21:21:55.631Z,3.73
2022-12-05T21:24:25.826Z,3.71
2022-12-05T21:26:55.635Z,3.72
2022-12-05T21:29:24.081Z,3.47
2022-12-05T21:31:54.066Z,3.67
2022-12-05T21:34:26.268Z,3.45
2022-12-05T21:36:54.506Z,3.52
2022-12-05T21:39:22.934Z,3.56
2022-12-05T21:41:52.915Z,3.63
2022-12-05T21:44:21.771Z,3.53
2022-12-05T21:46:51.713Z,3.40
2022-12-05T21:49:20.224Z,3.37
2022-12-05T21:51:51.152Z,3.41
2022-12-05T21:54:19.687Z,3.52
2022-12-05T21:56:47.998Z,3.64
2022-12-05T21:59:17.647Z,3.70
2022-12-05T22:01:47.746Z,3.69
2022-12-05T22:04:16.351Z,3.47
2022-12-05T22:06:44.519Z,3.53
2022-12-05T22:09:13.250Z,3.49
2022-12-05T22:11:41.902Z,3.26
2022-12-05T22:14:10.710Z,3.28
2022-12-05T22:16:41.241Z,3.28
2022-12-05T22:19:09.591Z,3.48
2022-12-05T22:21:38.103Z,3.50
2022-12-05T22:24:07.725Z,3.32
2022-12-05T22:26:35.881Z,3.20
2022-12-05T22:29:04.351Z,3.36
2022-12-05T22:31:33.202Z,3.49
2022-12-05T22:34:05.090Z,3.54
2022-12-05T22:36:33.777Z,3.59
2022-12-05T22:39:03.451Z,3.64
2022-12-05T22:41:32.656Z,3.67
2022-12-05T22:44:03.950Z,3.67
2022-12-05T22:46:33.140Z,3.67
2022-12-05T22:49:05.265Z,3.73
2022-12-05T22:51:34.239Z,3.71
2022-12-05T22:54:02.467Z,3.74
2022-12-05T22:56:31.087Z,3.51
2022-12-05T22:59:01.052Z,3.37
2022-12-05T23:01:33.949Z,3.32
2022-12-05T23:04:05.931Z,3.34
2022-12-05T23:06:42.391Z,3.29
2022-12-05T23:09:14.916Z,3.21
2022-12-05T23:11:44.696Z,3.42
2022-12-05T23:14:12.959Z,3.31
2022-12-05T23:16:41.671Z,3.12
2022-12-05T23:19:12.376Z,3.00
2022-12-05T23:21:42.257Z,3.16
2022-12-05T23:24:14.716Z,3.02
2022-12-05T23:26:47.441Z,3.23
2022-12-05T23:29:16.371Z,3.28
2022-12-05T23:31:46.386Z,3.17
2022-12-05T23:34:17.267Z,3.26
2022-12-05T23:36:45.835Z,3.14
2022-12-05T23:39:14.403Z,2.99
2022-12-05T23:41:44.306Z,3.16
2022-12-05T23:44:12.806Z,3.01
2022-12-05T23:46:41.292Z,3.20
2022-12-05T23:49:11.071Z,3.10
2022-12-05T23:51:41.723Z,3.21
2022-12-05T23:54:12.966Z,3.12
2022-12-05T23:56:42.383Z,3.13
2022-12-05T23:59:10.961Z,3.22
